Time;durP1;ratioP1;P1;durP2;ratioP2;P2;SDS_P1;SDS_P2;PMS_P1;PMS_P2;Temp;Humidity;BMP_temperature;BMP_pressure;BME280_temperature;BME280_humidity;BME280_pressure;Samples;Min_cycle;Max_cycle;Signal;HPM_P1;HPM_P2
2022/03/29 00:01:06;;;;;;;12.00;10.70;;;;;;;7.56;83.01;99128.91;4880208;29;20245;-78
2022/03/29 00:03:33;;;;;;;12.13;9.93;;;;;;;7.55;81.85;99129.94;4879884;29;20322;-78
2022/03/29 00:05:59;;;;;;;10.87;9.53;;;;;;;7.58;81.63;99118.81;4877593;29;20234;-79
2022/03/29 00:08:26;;;;;;;14.07;10.37;;;;;;;7.57;80.54;99117.19;4884841;29;20231;-79
2022/03/29 00:10:53;;;;;;;12.43;10.23;;;;;;;7.61;79.64;99110.41;4884198;29;20234;-79
2022/03/29 00:13:20;;;;;;;10.77;9.57;;;;;;;7.64;78.57;99104.66;4875145;29;20224;-79
2022/03/29 00:15:47;;;;;;;10.77;9.67;;;;;;;7.66;77.20;99111.41;4882035;29;20239;-79
2022/03/29 00:18:13;;;;;;;12.03;9.53;;;;;;;7.65;76.08;99099.09;4881042;29;20235;-80
2022/03/29 00:20:40;;;;;;;10.70;9.13;;;;;;;7.68;75.02;99108.53;4893609;29;20685;-80
2022/03/29 00:23:07;;;;;;;12.77;9.57;;;;;;;7.68;73.62;99096.00;4882131;29;20686;-79
2022/03/29 00:25:34;;;;;;;12.87;8.77;;;;;;;7.70;74.40;99103.81;4894262;29;20251;-80
2022/03/29 00:28:01;;;;;;;11.03;9.93;;;;;;;7.67;75.28;99094.38;4892767;29;20684;-76
2022/03/29 00:30:28;;;;;;;11.17;9.30;;;;;;;7.72;74.05;99089.22;4895690;29;20243;-81
2022/03/29 00:32:55;;;;;;;11.13;9.00;;;;;;;7.72;73.41;99086.56;4888199;29;20311;-81
2022/03/29 00:35:24;;;;;;;10.60;8.97;;;;;;;7.94;72.95;99084.34;4894822;29;20262;-82
2022/03/29 00:37:51;;;;;;;10.17;8.87;;;;;;;7.74;71.57;99075.69;4886042;29;20232;-81
2022/03/29 00:40:19;;;;;;;11.23;9.53;;;;;;;7.65;72.98;99072.44;4882873;29;20247;-81
2022/03/29 00:42:46;;;;;;;11.57;9.50;;;;;;;7.60;74.48;99064.28;4882792;29;20330;-81
2022/03/29 00:45:12;;;;;;;9.93;8.93;;;;;;;7.58;71.49;99063.66;4883317;29;20278;-81
2022/03/29 00:47:39;;;;;;;13.60;9.53;;;;;;;7.61;71.90;99071.22;4883533;29;20239;-81
2022/03/29 00:50:06;;;;;;;11.20;9.53;;;;;;;7.56;71.64;99065.72;4881240;29;20242;-80
2022/03/29 00:52:34;;;;;;;10.73;9.63;;;;;;;7.59;69.98;99069.81;4880782;29;20253;-79
2022/03/29 00:55:01;;;;;;;12.63;9.43;;;;;;;7.49;71.45;99056.94;4879263;29;20228;-80
2022/03/29 00:57:29;;;;;;;9.87;8.87;;;;;;;7.41;72.28;99059.88;4880130;29;20767;-79
2022/03/29 00:59:56;;;;;;;11.33;9.40;;;;;;;7.33;73.34;99058.25;4880449;29;20235;-79
2022/03/29 01:02:23;;;;;;;10.00;8.87;;;;;;;7.34;71.65;99057.22;4876254;29;20766;-79
2022/03/29 01:04:50;;;;;;;10.13;8.80;;;;;;;7.30;72.64;99061.34;4873237;29;20263;-80
2022/03/29 01:07:17;;;;;;;12.90;9.63;;;;;;;7.32;73.17;99066.47;4882006;29;20310;-80
2022/03/29 01:09:43;;;;;;;11.70;9.33;;;;;;;7.26;71.83;99056.66;4880974;29;20234;-80
2022/03/29 01:12:10;;;;;;;12.93;9.77;;;;;;;7.21;71.46;99056.47;4883288;29;20693;-81
2022/03/29 01:14:39;;;;;;;11.03;9.10;;;;;;;7.19;70.88;99056.69;4895915;29;20234;-82
2022/03/29 01:19:53;;;;;;;12.30;9.90;;;;;;;7.12;71.05;99041.75;4882009;29;20772;-83
2022/03/29 01:22:21;;;;;;;10.97;9.73;;;;;;;7.13;70.87;99044.22;4892734;29;20237;-82
2022/03/29 01:24:48;;;;;;;10.23;9.00;;;;;;;7.09;70.64;99046.47;4884257;29;20259;-82
2022/03/29 01:27:15;;;;;;;11.03;9.30;;;;;;;7.08;69.53;99036.88;4886354;29;20250;-81
2022/03/29 01:29:43;;;;;;;10.17;8.70;;;;;;;7.11;68.57;99030.28;4879089;29;20235;-81
2022/03/29 01:32:11;;;;;;;11.63;9.40;;;;;;;7.16;67.97;99026.97;4877885;29;20983;-80
2022/03/29 01:34:41;;;;;;;10.63;9.00;;;;;;;7.18;66.99;99019.59;4884111;29;20238;-80
2022/03/29 01:37:08;;;;;;;11.00;8.87;;;;;;;7.18;67.27;99020.44;4882771;29;20239;-80
2022/03/29 01:39:36;;;;;;;10.10;8.87;;;;;;;7.16;68.13;99019.00;4880156;29;20293;-81
2022/03/29 01:42:03;;;;;;;11.17;8.33;;;;;;;7.07;68.80;99019.25;4888749;29;20249;-81
2022/03/29 01:44:31;;;;;;;13.13;8.63;;;;;;;7.00;69.89;99018.44;4880924;29;20221;-81
2022/03/29 01:46:57;;;;;;;9.90;8.57;;;;;;;6.96;69.12;99016.41;4888714;29;20244;-81
2022/03/29 01:49:26;;;;;;;12.43;8.47;;;;;;;6.88;70.13;99008.66;4881468;29;20655;-80
2022/03/29 01:51:53;;;;;;;11.90;9.33;;;;;;;6.80;70.99;99008.91;4892993;29;20235;-80
2022/03/29 01:54:20;;;;;;;13.33;8.67;;;;;;;6.67;72.00;99001.78;4874142;29;20235;-80
2022/03/29 01:56:46;;;;;;;10.17;8.90;;;;;;;6.58;73.11;98997.69;4875052;29;20230;-80
2022/03/29 01:59:13;;;;;;;13.60;9.30;;;;;;;6.53;72.69;99000.97;4873627;29;20239;-80
2022/03/29 02:01:47;;;;;;;13.33;9.53;;;;;;;6.35;75.35;99003.47;4880071;29;20243;-80
2022/03/29 02:04:15;;;;;;;9.90;8.30;;;;;;;6.19;76.70;99003.94;4877001;29;20610;-80
2022/03/29 02:06:42;;;;;;;11.43;9.60;;;;;;;6.18;76.74;98992.47;4880968;29;20322;-80
2022/03/29 02:09:10;;;;;;;10.53;9.43;;;;;;;6.07;76.25;98981.63;4879200;29;20254;-80
2022/03/29 02:11:43;;;;;;;11.23;8.83;;;;;;;6.07;76.25;98982.44;4859787;29;20697;-80
2022/03/29 02:14:10;;;;;;;10.10;8.70;;;;;;;5.99;76.68;98995.13;4876774;29;20241;-79
2022/03/29 02:16:36;;;;;;;9.87;8.87;;;;;;;5.90;77.39;98983.91;4878810;29;20235;-80
2022/03/29 02:19:03;;;;;;;11.23;9.30;;;;;;;5.89;77.19;98981.44;4871156;29;20653;-80
2022/03/29 02:21:30;;;;;;;11.17;9.07;;;;;;;5.91;75.85;98979.41;4879054;29;20327;-80
2022/03/29 02:23:57;;;;;;;11.10;9.20;;;;;;;5.93;75.44;98967.53;4875456;29;20259;-80
2022/03/29 02:26:24;;;;;;;10.63;9.00;;;;;;;5.98;74.72;98972.22;4878294;29;20250;-80
2022/03/29 02:28:50;;;;;;;13.27;9.47;;;;;;;6.02;74.29;98976.13;4878585;29;20236;-80
2022/03/29 02:31:17;;;;;;;10.80;9.63;;;;;;;6.06;73.89;98982.66;4878552;29;20236;-79
2022/03/29 02:33:44;;;;;;;11.93;9.30;;;;;;;6.10;73.79;98970.59;4878566;29;20232;-79
2022/03/29 02:36:13;;;;;;;11.30;9.27;;;;;;;6.11;73.74;98974.88;4878499;29;20249;-79
2022/03/29 02:38:39;;;;;;;11.67;9.47;;;;;;;6.09;73.39;98963.63;4878500;29;20254;-79
2022/03/29 02:41:06;;;;;;;10.83;8.90;;;;;;;6.11;73.56;98974.88;4885278;29;20242;-79
2022/03/29 02:43:33;;;;;;;12.83;10.00;;;;;;;6.16;73.42;98967.09;4872098;29;20711;-79
2022/03/29 02:46:03;;;;;;;12.53;9.77;;;;;;;6.16;73.21;98962.59;4878115;29;20232;-78
2022/03/29 02:48:31;;;;;;;12.90;9.60;;;;;;;6.25;72.25;98962.38;4885006;29;20234;-79
2022/03/29 02:50:57;;;;;;;10.17;8.07;;;;;;;6.26;71.71;98958.69;4878591;29;20244;-79
2022/03/29 02:53:24;;;;;;;11.80;9.07;;;;;;;6.34;70.54;98964.63;4877369;29;20771;-79
2022/03/29 02:55:51;;;;;;;14.43;9.70;;;;;;;6.40;70.50;98957.63;4871851;29;20236;-78
2022/03/29 02:58:18;;;;;;;11.80;9.17;;;;;;;6.46;69.37;98952.28;4880288;29;20608;-79
2022/03/29 03:00:44;;;;;;;12.90;9.07;;;;;;;6.50;69.31;98947.34;4882221;29;20695;-79
2022/03/29 03:03:11;;;;;;;15.73;9.93;;;;;;;6.52;68.84;98948.81;4878383;29;20250;-79
2022/03/29 03:05:38;;;;;;;11.37;9.27;;;;;;;6.55;68.69;98952.88;4877284;29;20236;-79
2022/03/29 03:08:05;;;;;;;11.50;9.13;;;;;;;6.54;68.71;98943.25;4877922;29;20231;-80
2022/03/29 03:10:32;;;;;;;11.50;9.40;;;;;;;6.55;68.21;98945.72;4877173;29;20231;-79
2022/03/29 03:12:58;;;;;;;11.17;9.13;;;;;;;6.53;68.96;98947.75;4878780;29;20241;-80
2022/03/29 03:15:25;;;;;;;13.50;9.83;;;;;;;6.52;69.95;98943.47;4879737;29;20652;-82
2022/03/29 03:17:53;;;;;;;12.50;9.37;;;;;;;6.49;69.50;98935.91;4881064;29;20242;-81
2022/03/29 03:20:21;;;;;;;10.50;9.20;;;;;;;6.46;69.86;98939.00;4872214;29;20258;-79
2022/03/29 03:22:50;;;;;;;10.83;9.40;;;;;;;6.43;70.49;98938.59;4879871;29;20235;-80
2022/03/29 03:25:17;;;;;;;13.03;9.33;;;;;;;6.42;70.06;98935.13;4877533;29;20610;-79
2022/03/29 03:27:44;;;;;;;10.80;9.50;;;;;;;6.40;69.88;98928.34;4878222;29;20258;-80
2022/03/29 03:30:13;;;;;;;12.87;10.33;;;;;;;6.41;69.95;98933.47;4876842;29;20267;-80
2022/03/29 03:32:41;;;;;;;10.73;9.17;;;;;;;6.40;70.26;98926.50;4873746;29;20247;-79
2022/03/29 03:35:09;;;;;;;12.90;9.50;;;;;;;6.42;70.28;98927.13;4875399;29;20324;-79
2022/03/29 03:37:36;;;;;;;13.40;9.60;;;;;;;6.43;70.18;98927.94;4878218;29;20259;-79
2022/03/29 03:40:04;;;;;;;10.50;8.83;;;;;;;6.44;69.73;98922.41;4871074;29;20234;-79
2022/03/29 03:42:31;;;;;;;15.20;9.83;;;;;;;6.47;69.87;98919.34;4878136;29;20231;-79
2022/03/29 03:44:58;;;;;;;12.07;8.87;;;;;;;6.51;69.46;98919.72;4884941;29;20258;-79
2022/03/29 03:47:26;;;;;;;13.23;9.27;;;;;;;6.49;69.26;98919.94;4877975;29;20270;-80
2022/03/29 03:49:52;;;;;;;10.93;8.97;;;;;;;6.54;68.23;98919.28;4878126;29;20259;-80
2022/03/29 03:52:19;;;;;;;12.60;9.00;;;;;;;6.52;68.30;98924.84;4879324;29;20236;-80
2022/03/29 03:54:46;;;;;;;11.07;8.83;;;;;;;6.54;68.91;98911.31;4877991;29;20784;-80
2022/03/29 03:57:13;;;;;;;11.10;8.97;;;;;;;6.52;68.37;98911.53;4877735;29;20690;-80
2022/03/29 03:59:40;;;;;;;12.43;9.30;;;;;;;6.56;68.36;98907.44;4877977;29;20231;-80
2022/03/29 04:02:07;;;;;;;11.53;9.40;;;;;;;6.54;68.65;98909.47;4877346;29;20266;-80
2022/03/29 04:04:34;;;;;;;12.40;9.53;;;;;;;6.56;68.51;98910.09;4878352;29;20227;-80
2022/03/29 04:07:00;;;;;;;11.60;9.60;;;;;;;6.61;68.16;98907.63;4888157;29;20241;-80
2022/03/29 04:09:28;;;;;;;16.43;9.83;;;;;;;6.63;67.83;98910.03;4881262;29;20324;-80
2022/03/29 04:11:54;;;;;;;12.17;9.07;;;;;;;6.68;67.53;98914.72;4882832;29;20299;-80
2022/03/29 04:14:21;;;;;;;13.10;9.67;;;;;;;6.67;67.92;98913.94;4879433;29;20300;-79
2022/03/29 04:16:48;;;;;;;12.47;9.73;;;;;;;6.68;67.26;98907.56;4881591;29;20302;-80
2022/03/29 04:19:15;;;;;;;12.77;9.20;;;;;;;6.67;67.35;98902.47;4881092;29;20243;-81
2022/03/29 04:21:41;;;;;;;15.13;10.37;;;;;;;6.69;67.59;98903.06;4881272;29;20242;-80
2022/03/29 04:24:09;;;;;;;13.73;10.00;;;;;;;6.68;67.11;98896.09;4883740;29;20699;-79
2022/03/29 04:26:35;;;;;;;13.27;10.10;;;;;;;6.64;66.95;98896.53;4882576;29;20224;-81
2022/03/29 04:29:02;;;;;;;13.50;9.77;;;;;;;6.66;66.85;98898.19;4886536;29;20234;-81
2022/03/29 04:31:29;;;;;;;12.30;9.27;;;;;;;6.64;66.61;98896.53;4874904;29;20239;-80
2022/03/29 04:33:58;;;;;;;15.67;9.90;;;;;;;6.67;67.06;98891.81;4879906;29;20250;-80
2022/03/29 04:36:25;;;;;;;12.87;9.50;;;;;;;6.63;67.25;98888.75;4874334;29;20322;-79
2022/03/29 04:38:51;;;;;;;13.50;9.70;;;;;;;6.60;67.10;98892.66;4879753;29;20324;-80
2022/03/29 04:41:18;;;;;;;12.37;9.37;;;;;;;6.58;67.04;98888.56;4881211;29;20253;-80
2022/03/29 04:43:45;;;;;;;12.80;9.67;;;;;;;6.55;67.51;98891.66;4880956;29;20270;-80
2022/03/29 04:46:12;;;;;;;13.37;10.40;;;;;;;6.56;67.88;98885.31;4885878;29;20321;-81
2022/03/29 04:48:39;;;;;;;26.37;19.80;;;;;;;6.53;68.32;98889.19;4881066;29;20255;-80
2022/03/29 04:51:06;;;;;;;17.13;12.87;;;;;;;6.50;68.71;98888.81;4887886;29;20242;-80
2022/03/29 04:53:33;;;;;;;13.93;12.23;;;;;;;6.49;68.84;98889.84;4879985;29;20245;-79
2022/03/29 04:56:00;;;;;;;12.60;10.50;;;;;;;6.50;68.98;98894.13;4881036;29;20242;-80
2022/03/29 04:58:27;;;;;;;15.20;10.63;;;;;;;6.42;69.24;98892.53;4874073;29;20231;-80
2022/03/29 05:00:53;;;;;;;14.90;9.97;;;;;;;6.41;69.51;98888.25;4880470;29;20628;-80
2022/03/29 05:03:20;;;;;;;12.90;10.13;;;;;;;6.41;69.84;98882.09;4880774;29;20284;-80
2022/03/29 05:05:47;;;;;;;13.43;10.73;;;;;;;6.42;69.82;98884.56;4882193;29;20243;-80
2022/03/29 05:08:13;;;;;;;13.77;10.30;;;;;;;6.42;69.50;98887.22;4879972;29;20231;-80
2022/03/29 05:10:40;;;;;;;13.03;10.73;;;;;;;6.45;70.64;98891.28;4880564;29;20239;-80
2022/03/29 05:13:07;;;;;;;13.60;10.47;;;;;;;6.50;70.74;98891.47;4879486;29;20254;-80
2022/03/29 05:15:34;;;;;;;15.20;10.87;;;;;;;6.64;69.31;98904.53;4880647;29;20247;-80
2022/03/29 05:18:01;;;;;;;14.33;10.00;;;;;;;6.67;69.12;98897.97;4879460;29;20296;-78
2022/03/29 05:20:28;;;;;;;12.77;9.90;;;;;;;6.70;68.91;98894.88;4880278;29;20237;-80
2022/03/29 05:22:57;;;;;;;13.30;9.87;;;;;;;6.79;68.17;98893.59;4875682;29;20243;-80
2022/03/29 05:25:25;;;;;;;15.63;10.47;;;;;;;6.90;68.53;98898.25;4879813;29;20316;-80
2022/03/29 05:27:53;;;;;;;15.77;10.20;;;;;;;7.03;68.06;98892.84;4880108;29;20242;-80
2022/03/29 05:30:21;;;;;;;16.80;10.50;;;;;;;7.20;67.55;98894.97;4879600;29;20851;-80
2022/03/29 05:32:50;;;;;;;14.20;10.63;;;;;;;7.35;67.35;98893.66;4880384;29;20262;-80
2022/03/29 05:35:17;;;;;;;14.23;10.10;;;;;;;7.55;66.28;98888.16;4880181;29;20276;-80
2022/03/29 05:37:44;;;;;;;14.97;10.57;;;;;;;7.80;65.49;98890.78;4880875;29;20780;-80
2022/03/29 05:40:12;;;;;;;16.80;10.47;;;;;;;7.98;64.88;98896.16;4873074;29;20731;-80
2022/03/29 05:42:44;;;;;;;17.17;10.50;;;;;;;8.19;63.92;98873.59;4891958;29;20232;-81
2022/03/29 05:45:12;;;;;;;16.10;11.17;;;;;;;8.40;63.26;98886.50;4877652;29;20278;-81
2022/03/29 05:50:27;;;;;;;18.10;11.13;;;;;;;8.86;61.09;98887.78;4880887;29;20244;-81
2022/03/29 05:52:55;;;;;;;19.93;11.17;;;;;;;9.07;60.53;98893.44;4880264;29;20776;-81
2022/03/29 05:55:26;;;;;;;17.50;10.53;;;;;;;9.28;59.66;98887.56;4880589;29;20243;-80
2022/03/29 05:57:53;;;;;;;14.70;10.43;;;;;;;9.58;58.43;98890.16;4879941;29;20232;-79
2022/03/29 06:00:24;;;;;;;17.53;10.93;;;;;;;9.83;57.89;98889.16;4878727;29;20322;-79
2022/03/29 06:02:51;;;;;;;20.13;10.60;;;;;;;10.02;57.19;98885.31;4879324;29;20359;-78
2022/03/29 06:05:18;;;;;;;16.63;10.30;;;;;;;10.23;55.92;98887.41;4879127;29;20235;-78
2022/03/29 06:07:45;;;;;;;14.10;10.40;;;;;;;10.49;55.21;98886.09;4879569;29;20710;-79
2022/03/29 06:10:12;;;;;;;17.23;11.00;;;;;;;10.63;54.72;98883.94;4878542;29;20235;-79
2022/03/29 06:12:39;;;;;;;18.90;10.97;;;;;;;10.85;53.67;98896.44;4879467;29;20680;-79
2022/03/29 06:15:08;;;;;;;16.33;10.83;;;;;;;11.06;53.04;98889.59;4877738;29;20298;-79
2022/03/29 06:17:35;;;;;;;14.83;10.63;;;;;;;11.25;52.71;98884.81;4878800;29;20239;-79
2022/03/29 06:20:04;;;;;;;14.83;10.73;;;;;;;11.36;52.23;98890.13;4878902;29;20235;-78
2022/03/29 06:22:31;;;;;;;15.77;10.77;;;;;;;11.51;52.24;98891.44;4879818;29;20224;-80
2022/03/29 06:24:58;;;;;;;17.47;11.17;;;;;;;11.66;52.43;98891.69;4878446;29;20246;-79
2022/03/29 06:27:25;;;;;;;14.97;10.37;;;;;;;11.89;51.75;98895.06;4874794;29;20758;-79
2022/03/29 06:29:56;;;;;;;15.20;10.77;;;;;;;12.01;51.10;98891.44;4880641;29;20239;-79
2022/03/29 06:32:23;;;;;;;15.50;10.10;;;;;;;12.27;50.92;98896.13;4881083;29;20235;-79
2022/03/29 06:34:50;;;;;;;16.73;10.83;;;;;;;12.51;50.80;98894.00;4886903;29;20247;-78
2022/03/29 06:37:17;;;;;;;18.00;11.07;;;;;;;12.71;49.46;98894.25;4880371;29;20259;-79
2022/03/29 06:39:43;;;;;;;13.53;10.50;;;;;;;12.95;48.20;98901.00;4885555;29;20237;-79
2022/03/29 06:42:10;;;;;;;17.97;11.17;;;;;;;13.09;47.84;98893.34;4878224;29;20307;-79
2022/03/29 06:44:38;;;;;;;16.60;11.23;;;;;;;13.25;47.48;98905.88;4877453;29;20235;-79
2022/03/29 06:47:06;;;;;;;15.30;11.23;;;;;;;13.44;46.99;98909.03;4879055;29;20263;-79
2022/03/29 06:49:33;;;;;;;19.40;11.23;;;;;;;13.54;46.79;98906.44;4878420;29;20235;-79
2022/03/29 06:52:00;;;;;;;19.67;11.30;;;;;;;13.61;46.37;98896.28;4878814;29;20699;-79
2022/03/29 06:54:28;;;;;;;14.20;10.20;;;;;;;13.71;45.79;98899.06;4885087;29;20305;-79
2022/03/29 06:56:56;;;;;;;14.20;10.50;;;;;;;13.75;46.24;98897.47;4878638;29;20239;-79
2022/03/29 06:59:22;;;;;;;16.97;10.90;;;;;;;13.81;46.13;98901.00;4877333;29;20231;-79
2022/03/29 07:01:49;;;;;;;15.70;10.80;;;;;;;13.83;45.85;98894.28;4875984;29;20236;-79
2022/03/29 07:04:16;;;;;;;19.20;10.43;;;;;;;13.81;46.83;98891.03;4874899;29;20763;-79
2022/03/29 07:06:44;;;;;;;16.13;10.90;;;;;;;13.88;46.24;98886.25;4875447;29;20671;-80
2022/03/29 07:12:06;;;;;;;11.57;10.00;;;;;;;14.17;44.49;98883.22;4873639;29;20236;-80
2022/03/29 07:14:33;;;;;;;15.83;10.57;;;;;;;14.28;44.68;98879.47;4880292;29;20239;-79
2022/03/29 07:17:00;;;;;;;12.60;10.57;;;;;;;14.40;44.64;98870.16;4879793;29;20271;-80
2022/03/29 07:19:27;;;;;;;14.67;10.90;;;;;;;14.46;44.84;98874.47;4886389;29;20245;-80
2022/03/29 07:21:54;;;;;;;18.50;11.27;;;;;;;14.60;44.77;98877.53;4876493;29;20240;-79
2022/03/29 07:24:22;;;;;;;13.40;10.73;;;;;;;14.68;44.21;98876.19;4887423;29;20241;-79
2022/03/29 07:26:48;;;;;;;17.20;10.37;;;;;;;14.81;44.01;98881.91;4881581;29;20256;-80
2022/03/29 07:29:16;;;;;;;14.27;10.33;;;;;;;14.95;43.82;98879.50;4887840;29;20241;-79
2022/03/29 07:31:43;;;;;;;16.67;11.40;;;;;;;15.06;43.53;98880.34;4874672;29;20244;-79
2022/03/29 07:34:10;;;;;;;14.87;10.90;;;;;;;15.22;43.37;98871.19;4880134;29;20238;-79
2022/03/29 07:36:37;;;;;;;14.43;10.37;;;;;;;15.33;43.14;98865.56;4878902;29;20245;-79
2022/03/29 07:39:04;;;;;;;16.73;11.30;;;;;;;15.51;43.18;98866.94;4879537;29;20238;-79
2022/03/29 07:41:32;;;;;;;15.13;10.73;;;;;;;15.71;42.56;98861.56;4876060;29;20693;-79
2022/03/29 07:43:59;;;;;;;14.47;10.80;;;;;;;15.85;41.92;98856.41;4882075;29;20643;-79
2022/03/29 07:46:26;;;;;;;16.77;11.30;;;;;;;16.06;41.22;98854.47;4881433;29;20248;-79
2022/03/29 07:48:53;;;;;;;18.03;11.27;;;;;;;16.21;41.08;98851.72;4881670;29;20251;-79
2022/03/29 07:51:40;;;;;;;16.73;11.17;;;;;;;16.42;40.94;98856.00;4880555;29;20234;-79
2022/03/29 07:54:07;;;;;;;22.07;11.50;;;;;;;16.55;40.97;98850.00;4880449;29;20233;-79
2022/03/29 07:56:34;;;;;;;21.87;11.17;;;;;;;16.70;40.99;98857.25;4880884;29;20698;-79
2022/03/29 07:59:00;;;;;;;15.97;10.73;;;;;;;16.84;40.75;98852.88;4880901;29;20271;-79
2022/03/29 08:01:29;;;;;;;19.20;11.43;;;;;;;17.02;39.81;98856.81;4880688;29;20299;-79
2022/03/29 08:03:56;;;;;;;16.93;11.40;;;;;;;17.21;38.49;98856.97;4881115;29;20247;-79
2022/03/29 08:06:23;;;;;;;15.20;11.30;;;;;;;17.32;37.58;98858.50;4879587;29;20718;-79
2022/03/29 08:08:50;;;;;;;16.67;11.33;;;;;;;17.44;37.57;98856.25;4881185;29;20711;-79
2022/03/29 08:11:17;;;;;;;15.00;11.57;;;;;;;17.57;36.80;98855.59;4880947;29;20742;-80
2022/03/29 08:13:46;;;;;;;14.40;11.60;;;;;;;17.75;36.49;98852.22;4880646;29;20250;-80
2022/03/29 08:16:12;;;;;;;15.57;11.77;;;;;;;17.94;35.41;98847.69;4877728;29;20232;-79
2022/03/29 08:18:39;;;;;;;16.70;11.30;;;;;;;18.08;35.34;98853.25;4880357;29;20259;-80
2022/03/29 08:21:47;;;;;;;17.30;11.83;;;;;;;18.24;34.00;98843.06;4880760;29;20232;-79
2022/03/29 08:23:54;;;;;;;17.37;11.67;;;;;;;18.45;34.02;98842.53;4873245;29;20245;-79
2022/03/29 08:26:20;;;;;;;15.97;11.33;;;;;;;18.59;33.66;98847.28;4880188;29;20262;-79
2022/03/29 08:28:47;;;;;;;15.43;11.43;;;;;;;18.64;32.98;98839.88;4880606;29;20250;-80
2022/03/29 08:31:14;;;;;;;16.00;11.97;;;;;;;18.78;32.77;98829.94;4880515;29;20243;-80
2022/03/29 08:33:41;;;;;;;14.77;11.20;;;;;;;18.93;32.42;98828.91;4880435;29;20245;-79
2022/03/29 08:36:08;;;;;;;13.33;10.47;;;;;;;19.02;32.67;98827.16;4879866;29;20231;-76
2022/03/29 08:38:34;;;;;;;12.90;10.37;;;;;;;19.08;31.57;98828.69;4880489;29;20240;-77
2022/03/29 08:41:01;;;;;;;17.03;11.17;;;;;;;19.22;31.02;98824.09;4879319;29;20318;-77
2022/03/29 08:43:30;;;;;;;17.63;12.10;;;;;;;19.35;30.04;98822.56;4873862;29;20650;-77
2022/03/29 08:45:58;;;;;;;14.87;10.70;;;;;;;19.47;29.83;98819.41;4880148;29;20260;-77
2022/03/29 08:48:27;;;;;;;14.03;10.47;;;;;;;19.62;30.19;98814.53;4878934;29;20331;-77
2022/03/29 08:50:55;;;;;;;15.57;11.40;;;;;;;19.77;28.34;98810.75;4879532;29;20713;-77
2022/03/29 08:53:46;;;;;;;13.77;10.80;;;;;;;19.94;28.59;98805.53;4879757;29;20266;-77
2022/03/29 08:56:13;;;;;;;14.07;11.57;;;;;;;20.12;28.55;98801.91;4884978;29;20244;-77
2022/03/29 08:58:39;;;;;;;15.33;11.60;;;;;;;20.31;27.92;98799.13;4893258;29;20244;-77
2022/03/29 09:01:06;;;;;;;13.70;10.97;;;;;;;20.51;28.28;98804.16;4893379;29;20236;-78
2022/03/29 09:03:35;;;;;;;13.50;11.00;;;;;;;20.62;28.46;98800.09;4893674;29;20247;-76
2022/03/29 09:06:07;;;;;;;15.43;11.77;;;;;;;20.65;27.74;98804.94;4893765;29;20232;-76
2022/03/29 09:08:46;;;;;;;15.77;10.57;;;;;;;20.81;26.71;98796.47;4895090;29;20318;-77
2022/03/29 09:11:14;;;;;;;13.17;10.83;;;;;;;20.91;24.93;98793.47;4896053;29;20271;-77
2022/03/29 09:13:41;;;;;;;15.73;10.10;;;;;;;20.87;25.13;98782.41;4880133;29;20642;-77
2022/03/29 09:16:27;;;;;;;13.30;9.73;;;;;;;20.73;25.44;98789.81;4882623;29;20608;-77
2022/03/29 09:18:55;;;;;;;13.03;9.63;;;;;;;20.95;25.33;98784.38;4872682;29;20236;-77
2022/03/29 09:21:21;;;;;;;12.20;9.67;;;;;;;21.03;25.36;98785.59;4878554;29;20237;-76
2022/03/29 09:24:23;;;;;;;12.23;10.27;;;;;;;21.05;24.78;98781.44;4879233;29;20240;-77
2022/03/29 09:26:52;;;;;;;12.20;9.17;;;;;;;21.23;24.86;98776.94;4803849;29;20251;-77
2022/03/29 09:29:23;;;;;;;12.87;9.70;;;;;;;21.26;24.23;98767.38;4866485;29;20349;-77
2022/03/29 09:32:08;;;;;;;12.33;9.80;;;;;;;21.46;23.98;98772.31;4880239;29;20604;-77
2022/03/29 09:34:35;;;;;;;11.80;9.20;;;;;;;21.62;23.65;98773.53;4877909;29;20243;-77
2022/03/29 09:37:03;;;;;;;12.37;9.83;;;;;;;21.77;23.99;98761.41;4879313;29;20323;-77
2022/03/29 09:39:34;;;;;;;10.67;9.57;;;;;;;21.87;24.22;98763.88;4879340;29;20242;-77
2022/03/29 09:42:03;;;;;;;13.73;9.73;;;;;;;22.03;24.35;98761.53;4878765;29;20254;-77
2022/03/29 09:44:40;;;;;;;13.47;9.17;;;;;;;22.17;24.00;98767.69;4877919;29;20255;-77
2022/03/29 09:47:09;;;;;;;14.33;9.73;;;;;;;22.21;23.53;98760.50;4879094;29;20646;-77
2022/03/29 09:49:56;;;;;;;11.87;9.57;;;;;;;22.16;23.61;98774.28;4879136;29;20655;-77
2022/03/29 09:52:36;;;;;;;11.77;8.00;;;;;;;22.00;24.02;98762.19;4878706;29;20246;-77
2022/03/29 09:55:04;;;;;;;9.23;8.00;;;;;;;22.15;23.14;98762.56;4878784;29;20290;-77
2022/03/29 09:57:35;;;;;;;9.37;8.07;;;;;;;22.02;23.25;98754.50;4878902;29;20250;-77
2022/03/29 10:00:03;;;;;;;11.10;8.57;;;;;;;21.98;23.65;98742.63;4878567;29;20238;-76
2022/03/29 10:02:41;;;;;;;9.63;8.43;;;;;;;22.04;22.82;98749.53;4878566;29;20242;-77
2022/03/29 10:05:11;;;;;;;10.43;8.60;;;;;;;21.88;22.86;98749.91;4884228;29;20240;-77
2022/03/29 10:07:42;;;;;;;10.90;8.77;;;;;;;21.94;23.09;98754.13;4878120;29;20323;-77
2022/03/29 10:10:10;;;;;;;11.27;8.73;;;;;;;21.84;23.73;98743.47;4876386;29;20371;-76
2022/03/29 10:12:37;;;;;;;10.13;8.87;;;;;;;21.92;24.31;98741.91;4884321;29;20314;-77
2022/03/29 10:15:24;;;;;;;9.77;8.00;;;;;;;22.19;23.54;98735.47;4880317;29;20239;-77
2022/03/29 10:17:55;;;;;;;10.40;8.97;;;;;;;22.14;22.83;98725.50;4879848;29;20228;-77
2022/03/29 10:20:22;;;;;;;9.23;8.33;;;;;;;22.19;22.84;98719.91;4877395;29;20242;-77
2022/03/29 10:22:50;;;;;;;9.10;8.20;;;;;;;22.12;22.34;98729.66;4876702;29;20278;-77
2022/03/29 10:25:17;;;;;;;11.47;8.27;;;;;;;22.11;22.53;98733.50;4877152;29;20235;-77
2022/03/29 10:27:44;;;;;;;11.87;8.70;;;;;;;22.22;22.62;98712.97;4878238;29;20245;-77
2022/03/29 10:30:11;;;;;;;9.73;8.37;;;;;;;22.24;22.06;98703.38;4878084;29;20237;-77
2022/03/29 10:32:38;;;;;;;10.97;8.27;;;;;;;22.27;22.83;98710.91;4877242;29;20327;-77
2022/03/29 10:35:11;;;;;;;9.70;8.60;;;;;;;22.39;21.96;98713.03;4875489;29;20250;-77
2022/03/29 10:37:55;;;;;;;9.80;8.37;;;;;;;22.30;22.20;98693.91;4878232;29;20236;-77
2022/03/29 10:40:37;;;;;;;9.67;8.67;;;;;;;22.41;21.84;98697.13;4877826;29;20252;-77
2022/03/29 10:43:25;;;;;;;9.63;8.63;;;;;;;22.63;22.08;98690.75;4877283;29;20288;-77
2022/03/29 10:45:52;;;;;;;12.07;8.90;;;;;;;22.81;21.67;98689.66;4877908;29;20236;-77
2022/03/29 10:48:19;;;;;;;9.63;8.67;;;;;;;22.65;21.92;98694.75;4878119;29;20234;-76
2022/03/29 10:50:57;;;;;;;9.73;8.77;;;;;;;22.79;21.46;98678.22;4877898;29;20247;-76
2022/03/29 10:53:25;;;;;;;8.93;8.07;;;;;;;22.74;21.58;98678.38;4871908;29;20237;-78
2022/03/29 10:56:16;;;;;;;11.33;8.53;;;;;;;22.80;21.71;98672.44;4877716;29;20239;-77
2022/03/29 10:59:01;;;;;;;11.17;8.43;;;;;;;22.89;20.67;98668.91;4877523;29;20253;-76
2022/03/29 11:01:32;;;;;;;11.17;8.60;;;;;;;22.80;20.97;98666.19;4882795;29;20234;-77
2022/03/29 11:04:00;;;;;;;10.47;8.73;;;;;;;22.97;21.15;98666.16;4877034;29;20239;-77
2022/03/29 11:06:27;;;;;;;11.00;8.63;;;;;;;22.95;21.43;98664.88;4875784;29;20236;-76
2022/03/29 11:09:05;;;;;;;10.20;8.90;;;;;;;23.23;20.52;98666.13;4877939;29;20240;-76
2022/03/29 11:11:48;;;;;;;9.37;8.37;;;;;;;23.34;20.77;98658.34;4877819;29;20258;-77
2022/03/29 11:14:37;;;;;;;10.07;8.13;;;;;;;23.41;21.04;98645.00;4876710;29;20290;-78
2022/03/29 11:17:04;;;;;;;10.07;9.00;;;;;;;23.31;20.39;98643.41;4878013;29;20242;-78
2022/03/29 11:19:44;;;;;;;10.95;9.25;;;;;;;23.44;20.92;98641.59;4878160;29;20246;-77
2022/03/29 11:22:34;;;;;;;10.73;8.90;;;;;;;23.59;21.16;98641.09;4872944;29;20237;-78
2022/03/29 11:25:05;;;;;;;10.33;8.50;;;;;;;23.46;21.24;98634.72;4877896;29;20249;-78
2022/03/29 11:27:34;;;;;;;10.13;8.70;;;;;;;23.38;20.73;98624.56;4878188;29;20235;-77
2022/03/29 11:30:03;;;;;;;10.13;8.57;;;;;;;23.41;20.98;98632.13;4877389;29;20304;-77
2022/03/29 11:32:31;;;;;;;8.93;8.03;;;;;;;23.37;20.31;98623.00;4876837;29;20291;-77
2022/03/29 11:34:58;;;;;;;9.73;7.80;;;;;;;23.37;21.59;98619.44;4874318;29;20235;-78
2022/03/29 11:37:27;;;;;;;11.07;8.90;;;;;;;23.49;20.89;98614.91;4877556;29;20226;-77
2022/03/29 11:39:54;;;;;;;9.73;8.73;;;;;;;23.64;20.93;98605.38;4877424;29;20688;-77
2022/03/29 11:42:20;;;;;;;9.40;8.20;;;;;;;23.82;21.02;98608.81;4872445;29;20242;-77